createdAt,value
2018-08-09T00:01:35.070Z,20.80
2018-08-09T00:04:04.006Z,20.80
2018-08-09T00:06:33.025Z,20.80
2018-08-09T00:09:01.952Z,20.80
2018-08-09T00:11:30.984Z,20.80
2018-08-09T00:13:59.925Z,20.70
2018-08-09T00:16:28.952Z,20.70
2018-08-09T00:18:57.970Z,20.70
2018-08-09T00:21:26.878Z,20.70
2018-08-09T00:23:55.912Z,20.70
2018-08-09T00:26:24.835Z,20.60
2018-08-09T00:28:53.871Z,20.60
2018-08-09T00:31:22.898Z,20.60
2018-08-09T00:33:51.968Z,20.50
2018-08-09T00:36:21.023Z,20.50
2018-08-09T00:38:50.098Z,20.60
2018-08-09T00:41:19.161Z,20.50
2018-08-09T00:43:48.159Z,20.50
2018-08-09T00:46:17.146Z,20.40
2018-08-09T00:48:46.104Z,20.40
2018-08-09T00:51:15.042Z,20.40
2018-08-09T00:53:44.004Z,20.40
2018-08-09T00:56:13.083Z,20.40
2018-08-09T00:58:42.048Z,20.40
2018-08-09T01:01:11.087Z,20.40
2018-08-09T01:03:40.147Z,20.30
2018-08-09T01:06:09.244Z,20.20
2018-08-09T01:08:38.326Z,20.20
2018-08-09T01:11:07.712Z,20.30
2018-08-09T01:13:36.648Z,20.20
2018-08-09T01:16:05.685Z,20.10
2018-08-09T01:18:34.676Z,20.10
2018-08-09T01:21:03.604Z,20.00
2018-08-09T01:23:32.681Z,20.00
2018-08-09T01:26:01.627Z,20.00
2018-08-09T01:28:30.766Z,20.00
2018-08-09T01:30:59.785Z,20.10
2018-08-09T01:33:28.789Z,20.10
2018-08-09T01:35:57.757Z,20.10
2018-08-09T01:38:26.752Z,20.10
2018-08-09T01:40:55.722Z,20.10
2018-08-09T01:43:35.523Z,20.10
2018-08-09T01:46:04.502Z,20.00
2018-08-09T01:48:33.481Z,20.00
2018-08-09T01:51:02.485Z,19.90
2018-08-09T01:53:31.546Z,19.80
2018-08-09T01:56:00.611Z,19.80
2018-08-09T01:58:29.667Z,19.70
2018-08-09T02:00:58.729Z,19.60
2018-08-09T02:03:27.728Z,19.50
2018-08-09T02:05:56.697Z,19.50
2018-08-09T02:08:25.669Z,19.50
2018-08-09T02:10:54.709Z,19.50
2018-08-09T02:13:23.686Z,19.50
2018-08-09T02:15:52.646Z,19.50
2018-08-09T02:18:21.689Z,19.50
2018-08-09T02:20:50.690Z,19.60
2018-08-09T02:23:19.750Z,19.50
2018-08-09T02:25:48.711Z,19.50
2018-08-09T02:28:17.872Z,19.50
2018-08-09T02:30:46.890Z,19.40
2018-08-09T02:33:16.125Z,19.40
2018-08-09T02:35:45.425Z,19.30
2018-08-09T02:38:14.376Z,19.30
2018-08-09T02:40:43.342Z,19.20
2018-08-09T02:43:12.320Z,19.20
2018-08-09T02:45:41.329Z,19.20
2018-08-09T02:48:10.387Z,19.10
2018-08-09T02:50:39.453Z,19.10
2018-08-09T02:53:08.509Z,19.10
2018-08-09T02:55:37.529Z,19.10
2018-08-09T02:58:06.649Z,19.10
2018-08-09T03:00:35.595Z,19.00
2018-08-09T03:03:04.629Z,19.00
2018-08-09T03:05:33.592Z,18.90
2018-08-09T03:08:02.542Z,18.90
2018-08-09T03:10:31.630Z,18.80
2018-08-09T03:13:00.661Z,18.80
2018-08-09T03:15:29.655Z,18.70
2018-08-09T03:17:58.765Z,18.70
2018-08-09T03:20:27.937Z,18.70
2018-08-09T03:22:59.866Z,18.70
2018-08-09T03:25:28.972Z,18.60
2018-08-09T03:27:57.988Z,18.60
2018-08-09T03:30:26.964Z,18.50
2018-08-09T03:32:55.992Z,18.50
2018-08-09T03:35:24.944Z,18.50
2018-08-09T03:37:53.942Z,18.50
2018-08-09T03:40:22.951Z,18.50
2018-08-09T03:42:51.909Z,18.40
2018-08-09T03:45:20.925Z,18.40
2018-08-09T03:47:49.857Z,18.40
2018-08-09T03:50:18.849Z,18.40
2018-08-09T03:52:47.826Z,18.30
2018-08-09T03:55:16.802Z,18.30
2018-08-09T03:57:45.767Z,18.30
2018-08-09T04:00:15.307Z,18.30
2018-08-09T04:02:44.448Z,18.30
2018-08-09T04:05:13.348Z,18.30
2018-08-09T04:07:42.903Z,18.30
2018-08-09T04:10:11.886Z,18.30
2018-08-09T04:12:40.948Z,18.30
2018-08-09T04:15:11.244Z,18.30
2018-08-09T04:17:40.202Z,18.30
2018-08-09T04:20:09.372Z,18.30
2018-08-09T04:22:38.389Z,18.30
2018-08-09T04:25:07.402Z,18.30
2018-08-09T04:27:36.422Z,18.30
2018-08-09T04:30:05.882Z,18.30
2018-08-09T04:32:34.949Z,18.30
2018-08-09T04:35:04.009Z,18.30
2018-08-09T04:37:33.030Z,18.30
2018-08-09T04:40:01.943Z,18.30
2018-08-09T04:42:30.865Z,18.30
2018-08-09T04:44:59.899Z,18.20
2018-08-09T04:47:29.036Z,18.30
2018-08-09T04:49:58.064Z,18.30
2018-08-09T04:52:27.169Z,18.20
2018-08-09T04:54:56.111Z,18.30
2018-08-09T04:57:25.098Z,18.30
2018-08-09T04:59:54.240Z,18.30
2018-08-09T05:02:23.187Z,18.30
2018-08-09T05:04:52.241Z,18.30
2018-08-09T05:07:21.225Z,18.30
2018-08-09T05:09:50.237Z,18.40
2018-08-09T05:12:19.249Z,18.50
2018-08-09T05:14:48.330Z,18.50
2018-08-09T05:17:17.387Z,18.60
2018-08-09T05:19:46.432Z,18.60
2018-08-09T05:22:15.511Z,18.60
2018-08-09T05:24:44.533Z,18.60
2018-08-09T05:27:13.529Z,18.60
2018-08-09T05:29:42.567Z,18.60
2018-08-09T05:32:11.566Z,18.70
2018-08-09T05:34:40.602Z,18.70
2018-08-09T05:37:09.649Z,18.70
2018-08-09T05:39:38.647Z,18.70
2018-08-09T05:42:07.806Z,18.70
2018-08-09T05:44:36.832Z,18.70
2018-08-09T05:47:05.945Z,18.70
2018-08-09T05:49:35.104Z,18.80
2018-08-09T05:52:04.166Z,18.80
2018-08-09T05:54:33.167Z,18.90
2018-08-09T05:57:02.179Z,18.90
2018-08-09T05:59:31.226Z,19.00
2018-08-09T06:02:00.322Z,19.10
2018-08-09T06:04:29.401Z,19.20
2018-08-09T06:06:58.426Z,19.30
2018-08-09T06:09:27.459Z,19.30
2018-08-09T06:11:56.480Z,19.30
2018-08-09T06:14:25.583Z,19.30
2018-08-09T06:16:54.599Z,19.40
2018-08-09T06:19:23.687Z,19.50
2018-08-09T06:21:52.635Z,19.50
2018-08-09T06:24:21.706Z,19.60
2018-08-09T06:26:50.821Z,19.70
2018-08-09T06:29:19.826Z,19.80
2018-08-09T06:31:49.054Z,19.80
2018-08-09T06:34:18.026Z,19.90
2018-08-09T06:36:47.059Z,20.00
2018-08-09T06:39:16.182Z,20.10
2018-08-09T06:41:45.272Z,20.20
2018-08-09T06:44:14.289Z,20.20
2018-08-09T06:46:43.315Z,20.30
2018-08-09T06:49:12.370Z,20.50
2018-08-09T06:51:41.407Z,20.60
2018-08-09T06:54:10.566Z,20.70
2018-08-09T06:56:39.593Z,20.90
2018-08-09T06:59:08.605Z,21.10
2018-08-09T07:01:37.646Z,21.30
2018-08-09T07:04:06.746Z,21.50
2018-08-09T07:06:35.748Z,21.70
2018-08-09T07:09:07.609Z,22.00
2018-08-09T07:11:36.694Z,22.20
2018-08-09T07:14:05.936Z,22.40
2018-08-09T07:16:34.989Z,22.70
2018-08-09T07:19:04.105Z,22.90
2018-08-09T07:21:33.183Z,23.10
2018-08-09T07:24:02.162Z,23.20
2018-08-09T07:26:31.216Z,23.30
2018-08-09T07:29:00.206Z,23.50
2018-08-09T07:31:29.359Z,23.90
2018-08-09T07:33:58.447Z,24.10
2018-08-09T07:36:27.541Z,24.40
2018-08-09T07:38:56.593Z,24.70
2018-08-09T07:41:25.713Z,24.90
2018-08-09T07:43:54.689Z,25.20
2018-08-09T07:46:23.681Z,25.40
2018-08-09T07:48:52.794Z,25.70
2018-08-09T07:51:21.748Z,26.00
2018-08-09T07:53:50.731Z,26.30
2018-08-09T07:56:19.801Z,26.70
2018-08-09T07:58:48.852Z,27.00
2018-08-09T08:01:17.894Z,27.30
2018-08-09T08:03:46.992Z,27.60
2018-08-09T08:06:16.174Z,27.90
2018-08-09T08:08:45.227Z,28.10
2018-08-09T08:11:14.326Z,28.40
2018-08-09T08:13:43.445Z,28.60
2018-08-09T08:16:12.405Z,28.80
2018-08-09T08:18:41.414Z,29.10
2018-08-09T08:21:10.464Z,29.40
2018-08-09T08:23:39.545Z,29.60
2018-08-09T08:26:08.741Z,29.60
2018-08-09T08:28:37.886Z,29.60
2018-08-09T08:31:06.898Z,29.80
2018-08-09T08:33:35.966Z,29.90
2018-08-09T08:36:05.072Z,30.10
2018-08-09T08:38:34.069Z,30.40
2018-08-09T08:41:03.109Z,30.60
2018-08-09T08:43:32.107Z,30.70
2018-08-09T08:46:01.078Z,30.90
2018-08-09T08:48:30.147Z,31.00
2018-08-09T08:50:59.146Z,31.10
2018-08-09T08:53:28.147Z,31.10
2018-08-09T08:55:57.306Z,31.20
2018-08-09T08:58:26.310Z,31.40
2018-08-09T09:00:55.428Z,31.60
2018-08-09T09:03:24.444Z,31.80
2018-08-09T09:05:53.527Z,32.00
2018-08-09T09:08:22.559Z,32.30
2018-08-09T09:10:55.951Z,32.30
2018-08-09T09:13:25.125Z,32.20
2018-08-09T09:15:54.166Z,32.30
2018-08-09T09:18:23.171Z,32.20
2018-08-09T09:20:52.235Z,32.20
2018-08-09T09:23:21.274Z,32.20
2018-08-09T09:25:50.401Z,32.20
2018-08-09T09:28:19.465Z,32.40
2018-08-09T09:30:48.527Z,32.60
2018-08-09T09:33:17.568Z,32.80
2018-08-09T09:35:46.666Z,33.00
2018-08-09T09:38:15.686Z,33.10
2018-08-09T09:40:44.694Z,33.10
2018-08-09T09:43:13.727Z,33.20
2018-08-09T09:45:42.810Z,33.30
2018-08-09T09:48:11.747Z,33.70
2018-08-09T09:50:40.822Z,33.90
2018-08-09T09:53:09.878Z,34.20
2018-08-09T09:55:38.903Z,34.30
2018-08-09T09:58:07.933Z,34.40
2018-08-09T10:00:42.004Z,34.50
2018-08-09T10:03:11.139Z,34.40
2018-08-09T10:05:40.169Z,34.30
2018-08-09T10:08:09.183Z,34.50
2018-08-09T10:10:38.246Z,34.70
2018-08-09T10:13:07.247Z,34.90
2018-08-09T10:15:36.268Z,34.80
2018-08-09T10:18:05.526Z,34.60
2018-08-09T10:20:34.567Z,34.70
2018-08-09T10:23:03.686Z,34.70
2018-08-09T10:25:32.739Z,35.00
2018-08-09T10:28:01.768Z,35.30
2018-08-09T10:30:30.790Z,35.60
2018-08-09T10:33:00.428Z,35.60
2018-08-09T10:35:29.487Z,35.60
2018-08-09T10:37:58.509Z,35.80
2018-08-09T10:40:27.477Z,36.00
2018-08-09T10:42:56.476Z,35.90
2018-08-09T10:45:25.440Z,35.90
2018-08-09T10:47:54.486Z,36.30
2018-08-09T10:50:23.525Z,36.50
2018-08-09T10:52:52.549Z,36.70
2018-08-09T10:55:21.596Z,36.90
2018-08-09T10:57:50.547Z,37.00
2018-08-09T11:00:19.673Z,36.90
2018-08-09T11:02:48.741Z,36.80
2018-08-09T11:05:17.763Z,37.00
2018-08-09T11:07:46.812Z,37.00
2018-08-09T11:10:15.844Z,37.20
2018-08-09T11:12:44.865Z,37.40
2018-08-09T11:15:13.925Z,37.60
2018-08-09T11:17:43.077Z,37.90
2018-08-09T11:20:12.148Z,37.90
2018-08-09T11:22:41.202Z,37.90
2018-08-09T11:25:10.670Z,37.70
2018-08-09T11:27:39.876Z,37.50
2018-08-09T11:30:08.836Z,37.30
2018-08-09T11:32:37.912Z,37.10
2018-08-09T11:35:06.968Z,37.20
2018-08-09T11:37:36.001Z,37.10
2018-08-09T11:40:05.141Z,37.20
2018-08-09T11:42:34.126Z,37.50
2018-08-09T11:45:03.161Z,37.60
2018-08-09T11:47:32.262Z,37.60
2018-08-09T11:50:01.208Z,37.50
2018-08-09T11:52:30.188Z,37.40
2018-08-09T11:54:59.172Z,37.40
2018-08-09T11:57:28.306Z,37.30
2018-08-09T11:59:57.406Z,37.30
2018-08-09T12:02:26.350Z,37.40
2018-08-09T12:04:55.283Z,37.20
2018-08-09T12:07:24.269Z,37.30
2018-08-09T12:09:53.305Z,37.60
2018-08-09T12:12:22.395Z,37.70
2018-08-09T12:14:51.495Z,37.80
2018-08-09T12:17:20.458Z,37.60
2018-08-09T12:19:49.595Z,37.40
2018-08-09T12:22:18.592Z,37.40
2018-08-09T12:24:47.722Z,37.50
2018-08-09T12:27:16.872Z,37.60
2018-08-09T12:29:45.818Z,37.70
2018-08-09T12:32:14.847Z,37.80
2018-08-09T12:34:43.911Z,38.10
2018-08-09T12:37:13.038Z,38.00
2018-08-09T12:39:42.145Z,38.00
2018-08-09T12:42:11.215Z,38.00
2018-08-09T12:44:40.392Z,37.90
2018-08-09T12:47:09.586Z,37.90
2018-08-09T12:49:38.623Z,37.70
2018-08-09T12:52:07.905Z,37.90
2018-08-09T12:54:36.872Z,37.80
2018-08-09T12:57:05.871Z,38.20
2018-08-09T12:59:35.044Z,38.40
2018-08-09T13:02:04.148Z,38.30
2018-08-09T13:04:33.123Z,38.00
2018-08-09T13:07:02.159Z,38.00
2018-08-09T13:09:31.249Z,38.00
2018-08-09T13:12:00.358Z,38.40
2018-08-09T13:14:29.386Z,38.80
2018-08-09T13:16:58.438Z,39.00
2018-08-09T13:19:27.458Z,39.30
2018-08-09T13:21:56.579Z,39.60
2018-08-09T13:24:25.586Z,39.80
2018-08-09T13:26:54.709Z,40.20
2018-08-09T13:29:23.891Z,40.50
2018-08-09T13:31:52.972Z,40.90
2018-08-09T13:34:21.974Z,41.40
2018-08-09T13:36:51.149Z,41.40
2018-08-09T13:39:20.312Z,41.60
2018-08-09T13:41:49.377Z,42.00
2018-08-09T13:44:18.417Z,42.20
2018-08-09T13:46:47.364Z,42.30
2018-08-09T13:49:16.408Z,42.30
2018-08-09T13:51:45.492Z,42.60
2018-08-09T13:54:14.576Z,42.80
2018-08-09T13:56:43.592Z,43.20
2018-08-09T13:59:12.628Z,43.60
2018-08-09T14:01:41.661Z,43.50
2018-08-09T14:04:10.984Z,43.50
2018-08-09T14:06:40.107Z,43.40
2018-08-09T14:09:12.377Z,43.40
2018-08-09T14:11:42.036Z,43.50
2018-08-09T14:14:11.308Z,43.60
2018-08-09T14:16:40.766Z,43.90
2018-08-09T14:19:10.127Z,44.20
2018-08-09T14:21:39.376Z,44.00
2018-08-09T14:24:09.228Z,44.20
2018-08-09T14:26:38.303Z,44.30
2018-08-09T14:29:08.614Z,44.20
2018-08-09T14:31:38.065Z,44.30
2018-08-09T14:34:07.355Z,44.60
2018-08-09T14:36:36.365Z,44.40
2018-08-09T14:39:08.772Z,44.20
2018-08-09T14:41:37.846Z,44.10
2018-08-09T14:44:07.389Z,43.70
2018-08-09T14:46:36.548Z,43.40
2018-08-09T14:49:05.766Z,43.40
2018-08-09T14:51:34.907Z,43.20
2018-08-09T14:54:04.074Z,43.50
2018-08-09T14:56:33.217Z,43.60
2018-08-09T14:59:02.308Z,44.00
2018-08-09T15:01:32.392Z,43.90
2018-08-09T15:04:01.421Z,43.80
2018-08-09T15:06:30.409Z,43.90
2018-08-09T15:08:59.464Z,44.30
2018-08-09T15:11:28.609Z,44.30
2018-08-09T15:13:57.609Z,44.70
2018-08-09T15:16:26.746Z,45.20
2018-08-09T15:18:55.752Z,45.40
2018-08-09T15:21:24.814Z,45.70
2018-08-09T15:23:53.941Z,45.30
2018-08-09T15:26:23.127Z,45.00
2018-08-09T15:28:52.176Z,45.10
2018-08-09T15:31:21.346Z,44.80
2018-08-09T15:33:50.366Z,44.60
2018-08-09T15:36:19.382Z,44.70
2018-08-09T15:38:48.547Z,45.10
2018-08-09T15:41:17.638Z,45.50
2018-08-09T15:43:46.689Z,45.40
2018-08-09T15:46:15.701Z,44.80
2018-08-09T15:48:44.745Z,44.70
2018-08-09T15:51:13.909Z,44.80
2018-08-09T15:53:43.031Z,44.70
2018-08-09T15:56:12.382Z,44.10
2018-08-09T15:58:41.413Z,43.90
2018-08-09T16:01:10.905Z,43.90
2018-08-09T16:03:39.948Z,43.60
2018-08-09T16:06:08.985Z,42.90
2018-08-09T16:08:38.055Z,41.40
2018-08-09T16:11:07.047Z,39.60
2018-08-09T16:13:36.070Z,38.30
2018-08-09T16:16:05.667Z,37.20
2018-08-09T16:18:34.884Z,36.30
2018-08-09T16:21:03.887Z,35.50
2018-08-09T16:23:33.046Z,34.90
2018-08-09T16:26:02.120Z,34.40
2018-08-09T16:28:31.212Z,34.10
2018-08-09T16:31:00.411Z,33.80
2018-08-09T16:33:29.400Z,33.60
2018-08-09T16:35:58.433Z,33.40
2018-08-09T16:38:27.590Z,33.30
2018-08-09T16:40:56.713Z,33.10
2018-08-09T16:43:25.758Z,33.00
2018-08-09T16:45:54.918Z,32.80
2018-08-09T16:48:24.006Z,32.70
2018-08-09T16:50:53.144Z,32.60
2018-08-09T16:53:22.169Z,32.50
2018-08-09T16:55:51.160Z,32.40
2018-08-09T16:58:20.133Z,32.20
2018-08-09T17:00:49.166Z,32.10
2018-08-09T17:03:18.176Z,32.10
2018-08-09T17:05:47.192Z,32.00
2018-08-09T17:08:16.257Z,31.90
2018-08-09T17:10:45.269Z,31.80
2018-08-09T17:13:14.306Z,31.70
2018-08-09T17:15:43.363Z,31.60
2018-08-09T17:18:12.405Z,31.60
2018-08-09T17:20:41.498Z,31.50
2018-08-09T17:23:10.504Z,31.30
2018-08-09T17:25:39.578Z,31.10
2018-08-09T17:28:08.661Z,31.00
2018-08-09T17:30:37.713Z,30.90
2018-08-09T17:33:06.789Z,30.70
2018-08-09T17:35:35.806Z,30.70
2018-08-09T17:38:04.931Z,30.60
2018-08-09T17:40:34.593Z,30.50
2018-08-09T17:43:04.325Z,30.50
2018-08-09T17:45:35.689Z,30.50
2018-08-09T17:48:05.072Z,30.50
2018-08-09T17:50:34.209Z,30.40
2018-08-09T17:53:03.969Z,30.30
2018-08-09T17:55:33.477Z,30.20
2018-08-09T17:58:02.605Z,30.10
2018-08-09T18:00:32.930Z,30.10
2018-08-09T18:03:02.044Z,30.00
2018-08-09T18:05:31.089Z,29.90
2018-08-09T18:08:00.383Z,29.80
2018-08-09T18:10:32.066Z,29.70
2018-08-09T18:13:01.128Z,29.70
2018-08-09T18:15:30.888Z,29.60
2018-08-09T18:18:00.771Z,29.50
2018-08-09T18:20:35.472Z,29.40
2018-08-09T18:23:04.458Z,29.40
2018-08-09T18:25:33.546Z,29.30
2018-08-09T18:28:02.778Z,29.20
2018-08-09T18:30:31.977Z,29.10
2018-08-09T18:33:01.067Z,29.00
2018-08-09T18:35:30.042Z,28.90
2018-08-09T18:37:59.367Z,28.80
2018-08-09T18:40:29.032Z,28.60
2018-08-09T18:42:58.108Z,28.50
2018-08-09T18:45:27.226Z,28.40
2018-08-09T18:47:56.277Z,28.20
2018-08-09T18:50:27.745Z,28.10
2018-08-09T18:52:57.194Z,27.90
2018-08-09T18:55:26.319Z,27.80
2018-08-09T18:57:55.412Z,27.70
2018-08-09T19:00:26.485Z,27.60
2018-08-09T19:02:56.786Z,27.40
2018-08-09T19:05:26.272Z,27.40
2018-08-09T19:07:55.663Z,27.30
2018-08-09T19:10:26.706Z,27.10
2018-08-09T19:12:55.773Z,27.00
2018-08-09T19:15:24.900Z,26.90
2018-08-09T19:17:54.200Z,26.90
2018-08-09T19:20:29.931Z,26.90
2018-08-09T19:22:59.426Z,26.90
2018-08-09T19:25:28.610Z,26.90
2018-08-09T19:27:57.829Z,26.80
2018-08-09T19:30:28.273Z,26.80
2018-08-09T19:32:57.509Z,26.70
2018-08-09T19:35:26.563Z,26.70
2018-08-09T19:37:55.716Z,26.60
2018-08-09T19:40:26.666Z,26.50
2018-08-09T19:42:55.806Z,26.50
2018-08-09T19:45:24.920Z,26.40
2018-08-09T19:47:53.973Z,26.30
2018-08-09T19:50:23.906Z,26.20
2018-08-09T19:52:52.914Z,26.10
2018-08-09T19:55:24.398Z,26.10
2018-08-09T19:57:53.526Z,26.00
2018-08-09T20:00:23.864Z,26.00
2018-08-09T20:02:52.850Z,25.90
2018-08-09T20:05:21.826Z,25.80
2018-08-09T20:07:50.854Z,25.70
2018-08-09T20:10:19.988Z,25.70
2018-08-09T20:12:49.441Z,25.60
2018-08-09T20:15:19.831Z,25.60
2018-08-09T20:17:48.961Z,25.50
2018-08-09T20:20:19.411Z,25.40
2018-08-09T20:22:48.577Z,25.30
2018-08-09T20:25:17.666Z,25.20
2018-08-09T20:27:47.233Z,25.20
2018-08-09T20:30:17.288Z,25.20
2018-08-09T20:32:46.886Z,25.10
2018-08-09T20:35:18.168Z,25.10
2018-08-09T20:37:47.805Z,25.00
2018-08-09T20:40:17.589Z,25.00
2018-08-09T20:42:47.544Z,25.00
2018-08-09T20:45:17.924Z,25.00
2018-08-09T20:47:47.049Z,24.90
2018-08-09T20:50:18.227Z,24.90
2018-08-09T20:52:47.885Z,24.90
2018-08-09T20:55:17.103Z,24.80
2018-08-09T20:57:46.893Z,24.80
2018-08-09T21:00:18.332Z,24.80
2018-08-09T21:02:48.772Z,24.70
2018-08-09T21:05:19.253Z,24.70
2018-08-09T21:07:48.537Z,24.80
2018-08-09T21:10:17.636Z,24.70
2018-08-09T21:12:46.833Z,24.70
2018-08-09T21:15:16.435Z,24.70
2018-08-09T21:17:45.702Z,24.70
2018-08-09T21:20:15.150Z,24.70
2018-08-09T21:22:45.456Z,24.60
2018-08-09T21:25:14.546Z,24.60
2018-08-09T21:27:43.846Z,24.60
2018-08-09T21:30:15.366Z,24.60
2018-08-09T21:32:44.751Z,24.60
2018-08-09T21:35:13.716Z,24.50
2018-08-09T21:37:43.172Z,24.60
2018-08-09T21:40:12.944Z,24.60
2018-08-09T21:42:42.111Z,24.60
2018-08-09T21:45:14.230Z,24.50
2018-08-09T21:47:43.252Z,24.50
2018-08-09T21:50:14.886Z,24.40
2018-08-09T21:52:44.001Z,24.40
2018-08-09T21:55:13.429Z,24.50
2018-08-09T21:57:43.441Z,24.50
2018-08-09T22:01:17.209Z,24.50
2018-08-09T22:03:46.232Z,24.60
2018-08-09T22:06:20.415Z,24.50
2018-08-09T22:08:54.476Z,24.60
2018-08-09T22:11:36.439Z,24.70
2018-08-09T22:14:10.821Z,24.80
2018-08-09T22:16:44.979Z,24.90
2018-08-09T22:19:19.205Z,25.10
2018-08-09T22:21:53.586Z,25.20
2018-08-09T22:24:22.489Z,25.20
2018-08-09T22:26:51.506Z,25.20
2018-08-09T22:29:20.592Z,25.10
2018-08-09T22:31:49.606Z,25.00
2018-08-09T22:34:18.623Z,24.90
2018-08-09T22:36:47.628Z,24.80
2018-08-09T22:39:16.611Z,24.90
2018-08-09T22:41:45.726Z,24.90
2018-08-09T22:44:14.709Z,24.90
2018-08-09T22:46:43.867Z,24.80
2018-08-09T22:49:12.850Z,24.70
2018-08-09T22:51:41.768Z,24.60
2018-08-09T22:54:10.745Z,24.60
2018-08-09T22:56:39.746Z,24.60
2018-08-09T22:59:08.729Z,24.60
2018-08-09T23:01:37.767Z,24.60
2018-08-09T23:04:06.770Z,24.40
2018-08-09T23:06:35.786Z,24.40
2018-08-09T23:09:07.085Z,24.30
2018-08-09T23:11:36.087Z,24.20
2018-08-09T23:14:05.238Z,24.20
2018-08-09T23:16:34.288Z,24.20
2018-08-09T23:19:03.309Z,24.10
2018-08-09T23:21:32.508Z,24.20
2018-08-09T23:24:01.442Z,24.20
2018-08-09T23:26:30.545Z,24.10
2018-08-09T23:28:59.587Z,24.10
2018-08-09T23:31:28.669Z,24.10
2018-08-09T23:33:57.695Z,24.00
2018-08-09T23:36:26.648Z,24.00
2018-08-09T23:38:55.723Z,24.00
2018-08-09T23:41:24.664Z,24.10
2018-08-09T23:43:53.735Z,24.10
2018-08-09T23:46:22.686Z,24.20
2018-08-09T23:48:51.640Z,24.10
2018-08-09T23:51:20.610Z,24.10
2018-08-09T23:53:49.504Z,23.90
2018-08-09T23:56:18.527Z,23.80
2018-08-09T23:58:47.512Z,23.70
